Terminal Aerodrome Forecast
Issued by NWS

Home | Current Version | Previous Version | Text Only | Print | Product List | Glossary On
Versions: 1 2 3 4 5 6 7 8 9 10 11 12 13 14 15 16 17 18 19 20 21 22 23 24 25
000
FTUS43 KDLH 272300 RRA
TAFBRD
TAF
KBRD 272340Z 2800/2824 VRB03KT P6SM SCT050
     FM280600 VRB03KT 4SM BR SCT015 SCT040
      TEMPO 2808/2812 1SM BR
     FM281300 14004KT P6SM SCT023 SCT090 BKN180
     FM281700 16007KT P6SM VCSH BKN050 OVC170
      TEMPO 2820/2824 -TSRA BKN040CB=

USA.gov is the U.S. government's official web portal to all federal, state and local government web resources and services.